Time;durP1;ratioP1;P1;durP2;ratioP2;P2;SDS_P1;SDS_P2;PMS_P1;PMS_P2;Temp;Humidity;BMP_temperature;BMP_pressure;BME280_temperature;BME280_humidity;BME280_pressure;Samples;Min_cycle;Max_cycle;Signal;HPM_P1;HPM_P2
2023/01/07 00:01:23;;;;;;;16.15;15.13;;;12.30;99.90;;;;;;4920800;29;20117;-84
2023/01/07 00:03:50;;;;;;;18.02;16.88;;;12.20;99.90;;;;;;4937795;29;20043;-84
2023/01/07 00:06:24;;;;;;;16.45;15.52;;;12.20;99.90;;;;;;4920934;29;20419;-84
2023/01/07 00:08:50;;;;;;;16.48;15.40;;;12.20;99.90;;;;;;4921885;29;20470;-84
2023/01/07 00:11:19;;;;;;;14.40;13.40;;;12.20;99.90;;;;;;4904241;29;20036;-84
2023/01/07 00:13:45;;;;;;;16.73;15.52;;;12.10;99.90;;;;;;4937460;29;20043;-84
2023/01/07 00:16:16;;;;;;;16.85;15.55;;;12.10;99.90;;;;;;4936664;28;20035;-83
2023/01/07 00:18:42;;;;;;;15.00;13.93;;;12.20;99.90;;;;;;4904685;29;20043;-84
2023/01/07 00:21:10;;;;;;;14.93;14.02;;;12.10;99.90;;;;;;4930008;29;20144;-84
2023/01/07 00:23:38;;;;;;;15.43;14.38;;;12.10;99.90;;;;;;4920331;29;20047;-84
2023/01/07 00:26:06;;;;;;;15.25;14.20;;;12.10;99.90;;;;;;4920466;29;20036;-84
2023/01/07 00:28:33;;;;;;;15.20;14.07;;;12.10;99.90;;;;;;4937248;29;20032;-84
2023/01/07 00:31:00;;;;;;;15.75;14.75;;;12.10;99.90;;;;;;4919914;29;20397;-84
2023/01/07 00:33:29;;;;;;;14.35;13.25;;;12.20;99.90;;;;;;4936342;29;20027;-84
2023/01/07 00:36:09;;;;;;;15.98;14.85;;;12.10;99.90;;;;;;4937328;29;20488;-84
2023/01/07 00:38:35;;;;;;;14.57;13.57;;;12.00;99.90;;;;;;4904487;29;20050;-84
2023/01/07 00:41:02;;;;;;;15.25;14.10;;;12.00;99.90;;;;;;4935959;29;20421;-84
2023/01/07 00:43:28;;;;;;;14.50;13.55;;;12.00;99.90;;;;;;4936850;29;20035;-84
2023/01/07 00:45:54;;;;;;;15.05;13.95;;;12.00;99.90;;;;;;4935625;28;20039;-84
2023/01/07 00:48:22;;;;;;;15.60;14.55;;;12.00;99.90;;;;;;4936038;29;20036;-84
2023/01/07 00:50:49;;;;;;;15.95;14.85;;;11.90;99.90;;;;;;4935966;29;20020;-83
2023/01/07 00:53:15;;;;;;;16.40;15.35;;;11.90;99.90;;;;;;4937553;29;20036;-84
2023/01/07 00:55:41;;;;;;;15.82;14.65;;;11.90;99.90;;;;;;4935814;29;20036;-84
2023/01/07 00:58:18;;;;;;;17.77;16.58;;;12.00;99.90;;;;;;4935512;29;20400;-84
2023/01/07 01:00:44;;;;;;;16.92;15.50;;;12.00;99.90;;;;;;4919442;28;20378;-84
2023/01/07 01:03:11;;;;;;;16.65;15.63;;;12.00;99.90;;;;;;4936828;29;20052;-84
2023/01/07 01:05:37;;;;;;;16.52;15.40;;;12.00;99.90;;;;;;4919653;29;20370;-84
2023/01/07 01:08:04;;;;;;;17.30;16.13;;;12.10;99.90;;;;;;4936820;29;20050;-84
2023/01/07 01:10:30;;;;;;;15.63;14.63;;;12.10;99.90;;;;;;4934774;29;20504;-84
2023/01/07 01:12:56;;;;;;;16.35;15.35;;;12.10;99.90;;;;;;4903971;29;20032;-84
2023/01/07 01:15:22;;;;;;;17.35;16.17;;;12.10;99.90;;;;;;4934723;28;20046;-84
2023/01/07 01:17:49;;;;;;;16.45;15.35;;;12.00;99.90;;;;;;4934949;29;20043;-84
2023/01/07 01:20:15;;;;;;;18.23;16.83;;;12.00;99.90;;;;;;4907138;29;20031;-84
2023/01/07 01:22:42;;;;;;;17.90;16.65;;;11.90;99.90;;;;;;4919579;29;20039;-84
2023/01/07 01:25:08;;;;;;;19.90;18.40;;;11.90;99.90;;;;;;4919177;29;20397;-84
2023/01/07 01:27:34;;;;;;;19.00;17.52;;;11.80;99.90;;;;;;4919533;29;20039;-84
2023/01/07 01:30:01;;;;;;;19.73;18.48;;;11.80;99.90;;;;;;4936001;29;20485;-84
2023/01/07 01:32:27;;;;;;;19.52;18.23;;;11.80;99.90;;;;;;4902612;29;20044;-84
2023/01/07 01:34:53;;;;;;;17.30;16.20;;;11.60;99.90;;;;;;4919179;29;20051;-84
2023/01/07 01:37:19;;;;;;;18.38;17.08;;;11.60;99.90;;;;;;4935062;29;20028;-84
2023/01/07 01:39:45;;;;;;;18.98;17.40;;;11.40;99.90;;;;;;4935845;29;20028;-84
2023/01/07 01:42:13;;;;;;;17.63;16.48;;;11.30;99.90;;;;;;4936049;29;20059;-84
2023/01/07 01:44:39;;;;;;;17.17;16.05;;;11.30;99.90;;;;;;4936027;29;20067;-84
2023/01/07 01:47:17;;;;;;;17.13;15.68;;;11.40;99.90;;;;;;4935701;28;20027;-84
2023/01/07 01:49:47;;;;;;;16.50;15.40;;;11.40;99.90;;;;;;4919065;29;20027;-84
2023/01/07 01:52:15;;;;;;;16.15;15.07;;;11.40;99.90;;;;;;4934840;29;20024;-84
2023/01/07 01:54:44;;;;;;;16.98;15.68;;;11.30;99.90;;;;;;4934496;29;20038;-84
2023/01/07 01:57:10;;;;;;;15.40;14.15;;;11.40;99.90;;;;;;4918936;29;20028;-84
2023/01/07 01:59:41;;;;;;;16.35;15.15;;;11.30;99.90;;;;;;4934827;29;20043;-84
2023/01/07 02:02:07;;;;;;;15.48;14.23;;;11.30;99.90;;;;;;4934221;28;20051;-84
2023/01/07 02:04:33;;;;;;;16.48;15.13;;;11.20;99.90;;;;;;4918015;29;20413;-84
2023/01/07 02:07:15;;;;;;;15.82;14.73;;;11.20;99.90;;;;;;4935254;29;20046;-83
2023/01/07 02:09:41;;;;;;;15.88;14.77;;;11.20;99.90;;;;;;4920515;29;20034;-84
2023/01/07 02:12:17;;;;;;;17.00;15.75;;;11.30;99.90;;;;;;4903077;29;20413;-84
2023/01/07 02:15:13;;;;;;;14.93;13.90;;;11.30;99.90;;;;;;4918367;29;20043;-84
2023/01/07 02:18:00;;;;;;;16.70;15.65;;;11.30;99.90;;;;;;4903478;29;20402;-84
2023/01/07 02:20:32;;;;;;;17.00;15.65;;;11.30;99.90;;;;;;4923069;29;20040;-84
2023/01/07 02:23:35;;;;;;;15.88;14.82;;;11.30;99.90;;;;;;4935001;29;20047;-84
2023/01/07 02:26:23;;;;;;;16.25;15.15;;;11.30;99.90;;;;;;4934155;29;20042;-84
2023/01/07 02:29:21;;;;;;;17.20;16.00;;;11.40;99.90;;;;;;4935295;29;20032;-84
2023/01/07 02:32:12;;;;;;;16.52;15.45;;;11.40;99.90;;;;;;4933856;28;20117;-84
2023/01/07 02:35:01;;;;;;;16.80;15.60;;;11.30;99.90;;;;;;4935405;29;20035;-84
2023/01/07 02:37:52;;;;;;;16.73;15.48;;;11.20;99.90;;;;;;4933320;29;20043;-83
2023/01/07 02:40:27;;;;;;;16.90;15.60;;;11.20;99.90;;;;;;4933815;28;20047;-84
2023/01/07 02:43:15;;;;;;;16.00;14.90;;;11.10;99.90;;;;;;4918336;29;20036;-84
2023/01/07 02:45:47;;;;;;;15.32;14.13;;;11.10;99.90;;;;;;4933049;28;20420;-84
2023/01/07 02:48:14;;;;;;;15.60;14.52;;;11.00;99.90;;;;;;4917813;29;20060;-84
2023/01/07 02:50:40;;;;;;;17.00;15.57;;;11.10;99.90;;;;;;4934132;29;20024;-84
2023/01/07 02:53:07;;;;;;;16.17;14.98;;;11.00;99.90;;;;;;4917614;29;20046;-84
2023/01/07 02:56:11;;;;;;;17.10;15.80;;;11.10;99.90;;;;;;4901845;29;20036;-84
2023/01/07 02:59:09;;;;;;;16.00;14.80;;;11.00;99.90;;;;;;4933314;29;20050;-84
2023/01/07 03:01:44;;;;;;;15.75;14.65;;;11.10;99.90;;;;;;4928602;28;20043;-84
2023/01/07 03:04:19;;;;;;;15.60;14.50;;;10.90;99.90;;;;;;4926126;29;20042;-84
2023/01/07 03:07:13;;;;;;;15.68;14.50;;;10.90;99.90;;;;;;4927102;29;20469;-84
2023/01/07 03:09:42;;;;;;;16.70;15.45;;;10.80;99.90;;;;;;4920408;29;20102;-84
2023/01/07 03:12:18;;;;;;;16.80;15.30;;;10.80;99.90;;;;;;4914476;29;20122;-84
2023/01/07 03:15:15;;;;;;;15.73;14.55;;;10.70;99.90;;;;;;4914468;29;20386;-84
2023/01/07 03:18:20;;;;;;;14.55;13.45;;;10.70;99.90;;;;;;4916234;29;20051;-84
2023/01/07 03:20:47;;;;;;;16.75;15.48;;;10.70;99.90;;;;;;4874066;29;20040;-84
2023/01/07 03:23:13;;;;;;;16.27;15.02;;;10.70;99.90;;;;;;4874404;29;20053;-84
2023/01/07 03:25:42;;;;;;;16.55;15.35;;;10.70;99.90;;;;;;4864040;29;20048;-84
2023/01/07 03:28:09;;;;;;;15.60;14.40;;;10.70;99.90;;;;;;4874208;29;20037;-84
2023/01/07 03:30:36;;;;;;;15.68;14.63;;;10.60;99.90;;;;;;4873342;29;20041;-84
2023/01/07 03:33:15;;;;;;;16.52;15.20;;;10.60;99.90;;;;;;4858502;29;20041;-84
2023/01/07 03:35:42;;;;;;;15.75;14.65;;;10.70;99.90;;;;;;4870687;29;20221;-84
2023/01/07 03:38:08;;;;;;;16.15;14.90;;;10.80;99.90;;;;;;4889488;29;20406;-83
2023/01/07 03:40:34;;;;;;;16.25;14.95;;;10.80;99.90;;;;;;4898996;29;20047;-84
2023/01/07 03:43:00;;;;;;;16.10;14.90;;;10.70;99.90;;;;;;4913473;29;20047;-84
2023/01/07 03:45:26;;;;;;;16.67;15.38;;;10.60;99.90;;;;;;4913421;29;20540;-84
2023/01/07 03:47:54;;;;;;;16.98;15.68;;;10.50;99.90;;;;;;4913480;29;20036;-84
2023/01/07 03:50:20;;;;;;;17.00;15.40;;;10.50;99.90;;;;;;4913128;29;20056;-84
2023/01/07 03:52:49;;;;;;;16.90;15.50;;;10.50;99.90;;;;;;4936580;29;20059;-84
2023/01/07 03:55:16;;;;;;;16.88;15.57;;;10.50;99.90;;;;;;4937308;28;20027;-84
2023/01/07 03:57:42;;;;;;;17.05;15.88;;;10.50;99.90;;;;;;4940123;28;20031;-84
2023/01/07 04:00:09;;;;;;;17.65;16.20;;;10.50;99.90;;;;;;4907495;28;20043;-83
2023/01/07 04:02:35;;;;;;;16.67;15.48;;;10.60;99.90;;;;;;4939570;29;20043;-84
2023/01/07 04:05:01;;;;;;;19.23;17.42;;;10.50;99.90;;;;;;4939539;29;20062;-84
2023/01/07 04:07:27;;;;;;;17.15;15.85;;;10.30;99.90;;;;;;4956983;29;20093;-84
2023/01/07 04:09:53;;;;;;;17.58;16.23;;;10.20;99.90;;;;;;4924213;29;20043;-84
2023/01/07 04:12:19;;;;;;;18.30;16.80;;;10.30;99.90;;;;;;4956944;29;20034;-84
2023/01/07 04:14:46;;;;;;;17.33;16.13;;;10.30;99.90;;;;;;4924062;29;20072;-84
2023/01/07 04:17:12;;;;;;;18.13;16.75;;;10.40;99.90;;;;;;4956483;28;20040;-84
2023/01/07 04:19:38;;;;;;;18.20;16.80;;;10.40;99.90;;;;;;4958237;28;20031;-84
2023/01/07 04:22:08;;;;;;;18.45;16.77;;;10.30;99.90;;;;;;4943012;28;20035;-84
2023/01/07 04:24:34;;;;;;;17.83;16.38;;;10.30;99.90;;;;;;4942942;28;20708;-83
2023/01/07 04:27:00;;;;;;;17.48;16.17;;;10.30;99.90;;;;;;4958878;28;20034;-84
2023/01/07 04:29:27;;;;;;;16.50;15.20;;;10.20;99.90;;;;;;4942153;28;20050;-83
2023/01/07 04:31:53;;;;;;;16.50;15.10;;;10.20;99.90;;;;;;4975608;28;20062;-84
2023/01/07 04:34:19;;;;;;;16.63;15.27;;;10.10;99.90;;;;;;4958224;28;20023;-84
2023/01/07 04:36:45;;;;;;;17.00;15.85;;;10.00;99.90;;;;;;4958790;28;20034;-84
2023/01/07 04:39:11;;;;;;;17.17;15.98;;;10.00;99.90;;;;;;4942714;28;20035;-84
2023/01/07 04:41:38;;;;;;;17.63;16.23;;;9.90;99.90;;;;;;4929447;29;20066;-84
2023/01/07 04:44:04;;;;;;;16.75;15.48;;;9.90;99.90;;;;;;4939227;29;20039;-84
2023/01/07 04:46:30;;;;;;;16.45;15.18;;;10.00;99.90;;;;;;4955987;28;20039;-84
2023/01/07 04:48:56;;;;;;;17.38;16.08;;;10.00;99.90;;;;;;4939083;28;20027;-84
2023/01/07 04:51:22;;;;;;;16.63;15.48;;;9.90;99.90;;;;;;4954780;28;20047;-84
2023/01/07 04:53:48;;;;;;;16.90;15.40;;;9.90;99.90;;;;;;4923074;29;20047;-84
2023/01/07 04:56:15;;;;;;;16.77;15.38;;;9.90;99.90;;;;;;4923293;29;20456;-84
2023/01/07 04:58:41;;;;;;;17.45;15.80;;;9.90;99.90;;;;;;4923428;29;20039;-84
2023/01/07 05:01:07;;;;;;;17.40;16.00;;;10.00;99.90;;;;;;4954089;28;20493;-84
2023/01/07 05:03:33;;;;;;;16.55;15.25;;;10.00;99.90;;;;;;4955567;29;20027;-84
2023/01/07 05:05:59;;;;;;;17.08;15.77;;;9.80;99.90;;;;;;4938840;29;20035;-84
2023/01/07 05:08:26;;;;;;;16.65;15.45;;;9.90;99.90;;;;;;4936327;29;20393;-84
2023/01/07 05:10:52;;;;;;;16.00;14.77;;;9.90;99.90;;;;;;4904157;29;20032;-83
2023/01/07 05:13:19;;;;;;;17.10;15.80;;;10.00;99.90;;;;;;4904151;29;20031;-84
2023/01/07 05:15:46;;;;;;;16.17;14.98;;;10.00;99.90;;;;;;4887595;29;20393;-84
2023/01/07 05:18:12;;;;;;;16.15;14.95;;;10.00;99.90;;;;;;4903272;29;20036;-83
2023/01/07 05:20:38;;;;;;;17.42;15.93;;;10.00;99.90;;;;;;4925974;29;20032;-84
2023/01/07 05:23:04;;;;;;;16.67;15.48;;;10.00;99.90;;;;;;4919614;29;20035;-84
2023/01/07 05:25:31;;;;;;;16.52;15.32;;;10.00;99.90;;;;;;4936866;29;20040;-84
2023/01/07 05:27:57;;;;;;;15.70;14.60;;;9.90;99.90;;;;;;4936966;29;20031;-84
2023/01/07 05:30:23;;;;;;;16.50;15.30;;;9.90;99.90;;;;;;4918790;28;20477;-84
2023/01/07 05:32:50;;;;;;;16.55;14.95;;;9.80;99.90;;;;;;4934807;29;20028;-83
2023/01/07 05:35:16;;;;;;;17.27;15.60;;;9.80;99.90;;;;;;4919395;29;20035;-84
2023/01/07 05:37:42;;;;;;;17.17;15.88;;;9.70;99.90;;;;;;4919155;29;20042;-84
2023/01/07 05:40:09;;;;;;;16.73;15.52;;;9.70;99.90;;;;;;4936114;29;20034;-83
2023/01/07 05:42:35;;;;;;;17.23;15.93;;;9.70;99.90;;;;;;4936239;29;20024;-83
2023/01/07 05:45:02;;;;;;;16.60;15.40;;;9.70;99.90;;;;;;4935957;29;20513;-84
2023/01/07 05:47:28;;;;;;;17.85;16.35;;;9.70;99.90;;;;;;4918194;29;20397;-84
2023/01/07 05:49:54;;;;;;;15.85;14.75;;;9.70;99.90;;;;;;4934988;29;20038;-84
2023/01/07 05:52:20;;;;;;;18.13;16.83;;;9.70;99.90;;;;;;4936083;29;20385;-84
2023/01/07 05:54:46;;;;;;;17.30;16.10;;;9.70;99.90;;;;;;4919061;29;20044;-84
2023/01/07 05:57:12;;;;;;;18.15;16.85;;;9.60;99.90;;;;;;4935927;29;20027;-84
2023/01/07 05:59:38;;;;;;;18.80;17.38;;;9.60;99.90;;;;;;4902642;29;20044;-84
2023/01/07 06:02:04;;;;;;;18.75;17.45;;;9.50;99.90;;;;;;4917945;28;20039;-84
2023/01/07 06:04:31;;;;;;;18.88;17.48;;;9.40;99.90;;;;;;4934457;29;20048;-84
2023/01/07 06:06:57;;;;;;;18.95;17.63;;;9.40;99.90;;;;;;4914670;29;20486;-84
2023/01/07 06:09:23;;;;;;;19.23;17.83;;;9.40;99.90;;;;;;4918810;29;20035;-84
2023/01/07 06:11:49;;;;;;;18.38;16.98;;;9.50;99.90;;;;;;4935705;29;20478;-84
2023/01/07 06:14:15;;;;;;;18.67;17.33;;;9.50;99.90;;;;;;4918007;29;20043;-83
2023/01/07 06:16:41;;;;;;;19.42;17.92;;;9.50;99.90;;;;;;4933569;29;20043;-84
2023/01/07 06:19:07;;;;;;;19.75;18.33;;;9.50;99.90;;;;;;4917320;29;20047;-83
2023/01/07 06:21:33;;;;;;;19.48;18.17;;;9.50;99.90;;;;;;4935462;29;20039;-84
2023/01/07 06:23:59;;;;;;;20.17;18.77;;;9.50;99.90;;;;;;4934264;29;20097;-84
2023/01/07 06:26:25;;;;;;;18.73;17.33;;;9.40;99.90;;;;;;4934329;29;20042;-84
2023/01/07 06:28:51;;;;;;;18.50;17.15;;;9.40;99.90;;;;;;4935447;29;20028;-84
2023/01/07 06:31:18;;;;;;;18.73;17.42;;;9.40;99.90;;;;;;4934729;28;20382;-84
2023/01/07 06:33:44;;;;;;;18.90;17.60;;;9.40;99.90;;;;;;4918134;29;20040;-84
2023/01/07 06:36:10;;;;;;;18.75;17.35;;;9.30;99.90;;;;;;4918265;29;20043;-84
2023/01/07 06:38:36;;;;;;;18.15;16.85;;;9.30;99.90;;;;;;4934171;29;20028;-83
2023/01/07 06:41:02;;;;;;;19.50;18.10;;;9.40;99.90;;;;;;4934960;29;20055;-84
2023/01/07 06:43:28;;;;;;;18.83;17.52;;;9.40;99.90;;;;;;4935194;29;20047;-84
2023/01/07 06:45:55;;;;;;;19.58;18.17;;;9.40;99.90;;;;;;4917269;28;20040;-84
2023/01/07 06:48:21;;;;;;;19.58;18.13;;;9.40;99.90;;;;;;4934101;29;20032;-84
2023/01/07 06:50:47;;;;;;;19.35;17.85;;;9.30;99.90;;;;;;4917661;29;20039;-84
2023/01/07 06:53:13;;;;;;;20.55;18.95;;;9.40;99.90;;;;;;4935121;29;20038;-83
2023/01/07 06:55:39;;;;;;;19.60;18.10;;;9.30;99.90;;;;;;4933928;29;20035;-84
2023/01/07 06:58:05;;;;;;;19.65;18.15;;;9.30;99.90;;;;;;4935172;29;20381;-84
2023/01/07 07:00:31;;;;;;;19.33;17.83;;;9.30;99.90;;;;;;4934290;28;20040;-84
2023/01/07 07:02:57;;;;;;;19.67;18.00;;;9.20;99.90;;;;;;4918132;29;20408;-83
2023/01/07 07:05:23;;;;;;;19.15;17.63;;;9.20;99.90;;;;;;4917992;29;20490;-84
2023/01/07 07:07:49;;;;;;;17.92;16.58;;;9.20;99.90;;;;;;4906969;29;20053;-84
2023/01/07 07:10:16;;;;;;;18.85;17.30;;;9.20;99.90;;;;;;4935009;29;20042;-83
2023/01/07 07:12:42;;;;;;;16.95;15.65;;;9.20;99.90;;;;;;4934886;29;20055;-83
2023/01/07 07:15:08;;;;;;;19.13;17.60;;;9.20;99.90;;;;;;4917353;29;20047;-83
2023/01/07 07:17:34;;;;;;;19.67;17.75;;;9.10;99.90;;;;;;4934722;29;20036;-83
2023/01/07 07:20:01;;;;;;;18.30;16.90;;;9.10;99.90;;;;;;4934564;29;20040;-83
2023/01/07 07:22:27;;;;;;;19.23;17.63;;;9.10;99.90;;;;;;4933684;29;20039;-83
2023/01/07 07:24:53;;;;;;;19.23;17.45;;;9.10;99.90;;;;;;4917270;29;20059;-83
2023/01/07 07:27:19;;;;;;;18.73;17.33;;;9.10;99.90;;;;;;4917480;29;20040;-83
2023/01/07 07:29:45;;;;;;;18.35;16.75;;;9.10;99.90;;;;;;4933741;29;20031;-84
2023/01/07 07:32:11;;;;;;;19.25;17.65;;;9.10;99.90;;;;;;4936500;28;20040;-84
2023/01/07 07:34:37;;;;;;;18.65;17.30;;;9.10;99.90;;;;;;4937217;29;20039;-84
2023/01/07 07:37:03;;;;;;;19.88;18.38;;;9.20;99.90;;;;;;4938508;29;20039;-83
2023/01/07 07:39:29;;;;;;;18.30;16.73;;;9.20;99.90;;;;;;4937234;29;20032;-83
2023/01/07 07:41:55;;;;;;;19.45;17.95;;;9.20;99.90;;;;;;4936799;29;20059;-84
2023/01/07 07:44:21;;;;;;;20.17;18.48;;;9.10;99.90;;;;;;4937000;29;20069;-84
2023/01/07 07:46:47;;;;;;;19.13;17.52;;;9.10;99.90;;;;;;4937826;28;20035;-84
2023/01/07 07:49:14;;;;;;;19.83;18.15;;;9.10;99.90;;;;;;4937101;29;20031;-84
2023/01/07 07:51:40;;;;;;;19.55;17.95;;;9.20;99.90;;;;;;4938185;29;20023;-84
2023/01/07 07:54:06;;;;;;;17.27;15.98;;;9.20;99.90;;;;;;4921217;29;20035;-84
2023/01/07 07:56:32;;;;;;;19.52;17.83;;;9.20;99.90;;;;;;4937617;29;20028;-84
2023/01/07 07:58:58;;;;;;;18.35;16.92;;;9.20;99.90;;;;;;4920902;29;20087;-84
2023/01/07 08:01:24;;;;;;;20.05;18.45;;;9.10;99.90;;;;;;4920926;29;20032;-84
2023/01/07 08:03:50;;;;;;;20.15;18.48;;;9.10;99.90;;;;;;4920777;29;20047;-84
2023/01/07 08:06:16;;;;;;;20.17;18.40;;;9.10;99.90;;;;;;4920236;29;20054;-84
2023/01/07 08:08:42;;;;;;;19.75;18.08;;;9.30;99.90;;;;;;4921134;29;20042;-84
2023/01/07 08:11:08;;;;;;;19.98;18.38;;;9.30;99.90;;;;;;4920609;29;20031;-84
2023/01/07 08:13:34;;;;;;;20.10;18.55;;;9.40;99.90;;;;;;4937735;29;20053;-84
2023/01/07 08:16:00;;;;;;;20.27;18.67;;;9.40;99.90;;;;;;4920585;29;20028;-84
2023/01/07 08:18:27;;;;;;;19.67;18.17;;;9.50;99.90;;;;;;4905149;29;20032;-84
2023/01/07 08:20:54;;;;;;;19.20;17.65;;;9.50;99.90;;;;;;4936037;29;20481;-84
2023/01/07 08:23:20;;;;;;;19.38;17.58;;;9.50;99.90;;;;;;4936589;29;20032;-84
2023/01/07 08:25:46;;;;;;;19.63;17.83;;;9.50;99.90;;;;;;4936027;29;20508;-84
2023/01/07 08:28:12;;;;;;;19.55;18.15;;;9.60;99.90;;;;;;4937662;29;20028;-84
2023/01/07 08:30:39;;;;;;;18.75;17.33;;;9.60;99.90;;;;;;4935879;28;20040;-84
2023/01/07 08:33:05;;;;;;;19.20;17.60;;;9.60;99.90;;;;;;4936198;29;20028;-84
2023/01/07 08:35:32;;;;;;;19.33;17.75;;;9.60;99.90;;;;;;4920464;29;20032;-84
2023/01/07 08:38:05;;;;;;;19.45;17.95;;;9.60;99.90;;;;;;4937244;29;20492;-84
2023/01/07 08:40:31;;;;;;;19.65;17.88;;;9.60;99.90;;;;;;4919936;29;20044;-84
2023/01/07 08:43:01;;;;;;;18.92;17.33;;;9.70;99.90;;;;;;4935205;29;20028;-84
2023/01/07 08:45:27;;;;;;;18.88;17.42;;;9.70;99.90;;;;;;4919772;28;20036;-84
2023/01/07 08:47:57;;;;;;;19.00;17.48;;;9.80;99.90;;;;;;4935607;29;20048;-84
2023/01/07 08:50:27;;;;;;;17.50;16.00;;;9.80;99.90;;;;;;4920726;29;20024;-84
2023/01/07 08:52:53;;;;;;;19.27;17.58;;;9.80;99.90;;;;;;4936015;29;20027;-84
2023/01/07 08:55:20;;;;;;;17.42;15.93;;;9.70;99.90;;;;;;4936770;29;20035;-84
2023/01/07 08:57:49;;;;;;;17.20;15.90;;;9.70;99.90;;;;;;4903742;29;20039;-84
2023/01/07 09:00:15;;;;;;;18.75;17.23;;;9.70;99.90;;;;;;4935349;28;20043;-84
2023/01/07 09:02:42;;;;;;;18.98;17.10;;;9.80;99.90;;;;;;4920010;29;20028;-84
2023/01/07 09:05:08;;;;;;;19.38;17.80;;;9.80;99.90;;;;;;4935562;29;20055;-84
2023/01/07 09:07:34;;;;;;;18.33;16.52;;;9.90;99.90;;;;;;4910797;29;20108;-83
2023/01/07 09:10:00;;;;;;;19.35;17.58;;;9.80;99.90;;;;;;4919605;29;20032;-84
2023/01/07 09:12:26;;;;;;;26.80;24.13;;;9.90;99.90;;;;;;4919775;29;20039;-84
2023/01/07 09:14:53;;;;;;;21.10;19.33;;;9.90;99.90;;;;;;4904144;29;20039;-84
2023/01/07 09:17:19;;;;;;;19.35;17.52;;;9.90;99.90;;;;;;4903732;29;20042;-84
2023/01/07 09:19:45;;;;;;;20.60;18.63;;;10.00;99.90;;;;;;4936478;29;20038;-84
2023/01/07 09:22:11;;;;;;;19.02;17.45;;;10.00;99.90;;;;;;4919498;29;20490;-84
2023/01/07 09:24:37;;;;;;;18.13;16.50;;;10.10;99.90;;;;;;4934979;29;20031;-84
2023/01/07 09:27:03;;;;;;;18.45;16.75;;;10.10;99.90;;;;;;4936509;29;20394;-84
2023/01/07 09:29:29;;;;;;;17.73;16.02;;;10.10;99.90;;;;;;4935259;29;20032;-84
2023/01/07 09:31:55;;;;;;;20.73;18.75;;;10.10;99.90;;;;;;4935893;28;20044;-84
2023/01/07 09:34:21;;;;;;;17.77;16.08;;;10.10;99.90;;;;;;4935110;29;20497;-84
2023/01/07 09:36:48;;;;;;;18.42;16.60;;;10.20;99.90;;;;;;4936328;29;20039;-83
2023/01/07 09:39:14;;;;;;;19.25;16.63;;;10.20;99.90;;;;;;4918777;29;20044;-84
2023/01/07 09:41:48;;;;;;;16.85;15.35;;;10.20;99.90;;;;;;4936958;28;20063;-84
2023/01/07 09:44:17;;;;;;;23.05;17.10;;;10.20;99.90;;;;;;4934940;29;20051;-84
2023/01/07 09:46:43;;;;;;;19.95;16.50;;;10.30;99.90;;;;;;4934285;28;20051;-84
2023/01/07 09:49:17;;;;;;;18.65;16.83;;;10.30;99.90;;;;;;4919222;29;20036;-84
2023/01/07 09:51:45;;;;;;;17.33;15.70;;;10.30;99.90;;;;;;4919420;29;20032;-84
2023/01/07 09:54:27;;;;;;;21.02;18.05;;;10.30;99.90;;;;;;4918506;29;20027;-84
2023/01/07 09:56:53;;;;;;;24.42;19.50;;;10.30;99.90;;;;;;4903121;29;20070;-84
2023/01/07 09:59:19;;;;;;;19.13;17.23;;;10.40;99.90;;;;;;4934765;29;20035;-84
2023/01/07 10:02:06;;;;;;;18.17;16.23;;;10.40;99.90;;;;;;4918163;28;20059;-84
2023/01/07 10:04:50;;;;;;;18.92;16.98;;;10.40;99.90;;;;;;4918406;29;20504;-84
2023/01/07 10:07:30;;;;;;;17.98;16.48;;;10.40;99.90;;;;;;4928584;29;20039;-84
2023/01/07 10:10:14;;;;;;;19.85;17.90;;;10.40;99.90;;;;;;4904108;29;20031;-84
2023/01/07 10:12:50;;;;;;;19.80;18.00;;;10.50;99.90;;;;;;4887894;29;20408;-84
2023/01/07 10:15:55;;;;;;;20.65;19.02;;;10.50;99.90;;;;;;4918406;29;20374;-84
2023/01/07 10:18:32;;;;;;;20.90;19.10;;;10.50;99.90;;;;;;4921055;29;20051;-84
2023/01/07 10:21:25;;;;;;;18.50;16.58;;;10.50;99.90;;;;;;4927447;29;20027;-84
2023/01/07 10:24:03;;;;;;;20.35;15.98;;;10.50;99.90;;;;;;4934116;29;20051;-84
2023/01/07 10:26:50;;;;;;;18.48;16.55;;;10.50;99.90;;;;;;4918546;29;20044;-84
2023/01/07 10:29:27;;;;;;;17.88;16.15;;;10.50;99.90;;;;;;4918469;29;20028;-84
2023/01/07 10:31:54;;;;;;;20.85;17.38;;;10.50;99.90;;;;;;4933918;28;20043;-84
2023/01/07 10:34:23;;;;;;;20.95;18.77;;;10.50;99.90;;;;;;4934261;29;20401;-85
2023/01/07 10:37:05;;;;;;;20.58;17.92;;;10.50;99.90;;;;;;4918148;29;20046;-85
2023/01/07 10:40:19;;;;;;;20.92;19.13;;;10.40;99.90;;;;;;4918454;29;20417;-85
2023/01/07 10:42:51;;;;;;;19.27;17.55;;;10.40;99.90;;;;;;4930207;29;20056;-86
2023/01/07 10:45:49;;;;;;;19.88;17.90;;;10.40;99.90;;;;;;4901593;28;20059;-85
2023/01/07 10:48:37;;;;;;;19.40;17.50;;;10.40;99.90;;;;;;4918294;29;20028;-86
2023/01/07 10:51:31;;;;;;;21.80;19.67;;;10.40;99.90;;;;;;4933891;29;20100;-86
2023/01/07 10:54:08;;;;;;;21.05;18.42;;;10.40;99.90;;;;;;4934201;29;20028;-85
2023/01/07 10:56:38;;;;;;;20.17;18.25;;;10.40;99.90;;;;;;4935231;29;20039;-86
2023/01/07 10:59:06;;;;;;;18.70;16.65;;;10.40;99.90;;;;;;4918307;29;20024;-86
2023/01/07 11:01:33;;;;;;;20.02;18.23;;;10.40;99.90;;;;;;4932776;29;20501;-85
2023/01/07 11:04:00;;;;;;;19.55;17.73;;;10.50;99.90;;;;;;4918083;29;20023;-85
2023/01/07 11:06:57;;;;;;;19.90;18.30;;;10.50;99.90;;;;;;4899919;29;20052;-86
2023/01/07 11:09:41;;;;;;;19.67;17.98;;;10.60;99.90;;;;;;4906068;29;20035;-85
2023/01/07 11:12:50;;;;;;;17.90;16.13;;;10.60;99.90;;;;;;4903211;29;20032;-85
2023/01/07 11:15:44;;;;;;;17.95;16.42;;;10.60;99.90;;;;;;4908673;29;20036;-85
2023/01/07 11:18:12;;;;;;;17.90;16.27;;;10.80;99.90;;;;;;4904252;29;20033;-85
2023/01/07 11:20:47;;;;;;;18.63;17.08;;;10.80;99.90;;;;;;4918371;29;20028;-85
2023/01/07 11:23:35;;;;;;;18.58;17.02;;;10.80;99.90;;;;;;4938752;29;20024;-85
2023/01/07 11:26:27;;;;;;;17.83;16.23;;;10.90;99.90;;;;;;4937644;29;20040;-84
2023/01/07 11:29:00;;;;;;;20.05;17.02;;;10.90;99.90;;;;;;4921554;29;20032;-85
2023/01/07 11:31:49;;;;;;;16.80;15.38;;;10.90;99.90;;;;;;4920816;29;20050;-85
2023/01/07 11:34:36;;;;;;;18.90;17.17;;;11.00;99.90;;;;;;4937029;29;20035;-84
2023/01/07 11:37:03;;;;;;;18.50;16.65;;;11.00;99.90;;;;;;4905486;29;20035;-85
2023/01/07 11:39:31;;;;;;;18.00;16.38;;;11.00;99.90;;;;;;4904776;29;20047;-84
2023/01/07 11:45:12;;;;;;;19.60;17.63;;;11.00;99.90;;;;;;4943582;29;20035;-85
2023/01/07 11:47:44;;;;;;;18.15;16.90;;;11.00;99.90;;;;;;4920444;29;20031;-85
2023/01/07 11:50:19;;;;;;;;;;;11.10;99.90;;;;;;4921537;29;20496;-85
2023/01/07 11:53:05;;;;;;;18.50;17.00;;;11.10;99.90;;;;;;4937070;29;19911;-85
2023/01/07 11:55:31;;;;;;;19.77;18.27;;;11.00;99.90;;;;;;4904911;29;20044;-84
2023/01/07 11:57:57;;;;;;;19.95;17.85;;;11.00;99.90;;;;;;4938104;29;20076;-85
2023/01/07 12:00:24;;;;;;;24.70;17.52;;;11.00;99.90;;;;;;4920742;28;20046;-84
2023/01/07 12:03:10;;;;;;;20.83;19.00;;;11.00;99.90;;;;;;4920726;29;20054;-84
2023/01/07 12:05:37;;;;;;;18.80;16.90;;;11.00;99.90;;;;;;4936816;29;20043;-84
2023/01/07 12:08:04;;;;;;;19.40;17.70;;;11.00;99.90;;;;;;4908154;29;20043;-84
2023/01/07 12:10:35;;;;;;;20.00;17.98;;;11.00;99.90;;;;;;4921163;29;20039;-84
2023/01/07 12:13:04;;;;;;;19.95;17.65;;;11.10;99.90;;;;;;4905763;29;20036;-84
2023/01/07 12:15:33;;;;;;;19.92;18.02;;;11.10;99.90;;;;;;4904941;29;20031;-84
2023/01/07 12:18:05;;;;;;;18.13;16.58;;;11.10;99.90;;;;;;4903942;29;20039;-84
2023/01/07 12:21:12;;;;;;;19.42;17.25;;;11.10;99.90;;;;;;4937570;29;20039;-85
2023/01/07 12:23:56;;;;;;;20.50;18.73;;;11.10;99.90;;;;;;4863219;29;20038;-84
2023/01/07 12:26:38;;;;;;;21.48;19.42;;;11.10;99.90;;;;;;4878389;29;20052;-84
2023/01/07 12:29:35;;;;;;;18.40;16.80;;;11.10;99.90;;;;;;4865227;29;20040;-84
2023/01/07 12:32:28;;;;;;;20.08;18.35;;;11.20;99.90;;;;;;4878072;29;20550;-84
2023/01/07 12:35:13;;;;;;;21.23;19.13;;;11.20;99.90;;;;;;4878314;29;20037;-84
2023/01/07 12:38:04;;;;;;;19.50;17.70;;;11.20;99.90;;;;;;4864033;29;20040;-85
2023/01/07 12:40:38;;;;;;;19.73;17.67;;;11.20;99.90;;;;;;4874012;29;20045;-84
2023/01/07 12:43:12;;;;;;;26.02;20.65;;;11.10;99.90;;;;;;4882612;29;20036;-85
2023/01/07 12:45:42;;;;;;;25.92;19.73;;;11.10;99.90;;;;;;4881652;29;20064;-85
2023/01/07 12:48:41;;;;;;;19.70;17.70;;;11.10;99.90;;;;;;4881455;29;20044;-85
2023/01/07 12:51:21;;;;;;;22.15;19.90;;;11.10;99.90;;;;;;4873453;29;20040;-85
2023/01/07 12:53:53;;;;;;;20.20;18.45;;;11.10;99.90;;;;;;4881877;29;20044;-86